createdAt,value
2018-02-10T00:00:51.578Z,1010.39
2018-02-10T00:01:51.558Z,1010.38
2018-02-10T00:02:51.555Z,1010.36
2018-02-10T00:03:51.514Z,1010.39
2018-02-10T00:04:51.504Z,1010.38
2018-02-10T00:05:51.478Z,1010.39
2018-02-10T00:06:51.452Z,1010.41
2018-02-10T00:07:51.455Z,1010.40
2018-02-10T00:08:51.414Z,1010.40
2018-02-10T00:09:51.398Z,1010.39
2018-02-10T00:10:51.393Z,1010.36
2018-02-10T00:11:51.355Z,1010.36
2018-02-10T00:12:51.337Z,1010.39
2018-02-10T00:13:51.334Z,1010.35
2018-02-10T00:14:51.295Z,1010.34
2018-02-10T00:15:51.278Z,1010.36
2018-02-10T00:16:51.256Z,1010.38
2018-02-10T00:17:51.234Z,1010.38
2018-02-10T00:18:51.251Z,1010.37
2018-02-10T00:19:51.211Z,1010.36
2018-02-10T00:20:51.172Z,1010.36
2018-02-10T00:21:51.154Z,1010.37
2018-02-10T00:22:51.137Z,1010.39
2018-02-10T00:23:51.115Z,1010.38
2018-02-10T00:24:51.094Z,1010.38
2018-02-10T00:25:51.090Z,1010.38
2018-02-10T00:26:51.054Z,1010.36
2018-02-10T00:27:51.032Z,1010.35
2018-02-10T00:28:51.011Z,1010.33
2018-02-10T00:29:50.996Z,1010.32
2018-02-10T00:30:50.992Z,1010.31
2018-02-10T00:31:50.958Z,1010.36
2018-02-10T00:32:50.937Z,1010.36
2018-02-10T00:33:50.920Z,1010.35
2018-02-10T00:34:50.894Z,1010.36
2018-02-10T00:35:50.891Z,1010.36
2018-02-10T00:36:50.869Z,1010.38
2018-02-10T00:37:50.834Z,1010.38
2018-02-10T00:38:50.813Z,1010.40
2018-02-10T00:39:50.795Z,1010.37
2018-02-10T00:40:50.776Z,1010.37
2018-02-10T00:41:50.774Z,1010.37
2018-02-10T00:42:50.735Z,1010.34
2018-02-10T00:43:50.708Z,1010.35
2018-02-10T00:44:50.690Z,1010.35
2018-02-10T00:45:50.673Z,1010.40
2018-02-10T00:46:50.656Z,1010.35
2018-02-10T00:47:50.652Z,1010.39
2018-02-10T00:48:50.613Z,1010.40
2018-02-10T00:49:50.593Z,1010.40
2018-02-10T00:50:50.569Z,1010.46
2018-02-10T00:51:50.553Z,1010.42
2018-02-10T00:52:50.533Z,1010.42
2018-02-10T00:53:50.527Z,1010.45
2018-02-10T00:54:50.491Z,1010.44
2018-02-10T00:55:50.475Z,1010.44
2018-02-10T00:56:50.453Z,1010.44
2018-02-10T00:57:50.431Z,1010.42
2018-02-10T00:58:50.424Z,1010.43
2018-02-10T00:59:50.392Z,1010.44
2018-02-10T01:00:50.374Z,1010.43
2018-02-10T01:01:50.352Z,1010.42
2018-02-10T01:02:50.346Z,1010.42
2018-02-10T01:03:50.313Z,1010.42
2018-02-10T01:04:50.293Z,1010.44
2018-02-10T01:05:50.270Z,1010.43
2018-02-10T01:06:50.253Z,1010.45
2018-02-10T01:07:50.244Z,1010.43
2018-02-10T01:08:50.212Z,1010.44
2018-02-10T01:09:50.189Z,1010.43
2018-02-10T01:10:50.184Z,1010.43
2018-02-10T01:11:50.149Z,1010.43
2018-02-10T01:12:50.130Z,1010.44
2018-02-10T01:13:50.125Z,1010.47
2018-02-10T01:14:50.087Z,1010.47
2018-02-10T01:15:50.065Z,1010.45
2018-02-10T01:16:50.046Z,1010.44
2018-02-10T01:17:50.027Z,1010.48
2018-02-10T01:18:50.016Z,1010.47
2018-02-10T01:19:50.007Z,1010.50
2018-02-10T01:20:49.970Z,1010.49
2018-02-10T01:21:49.947Z,1010.55
2018-02-10T01:22:49.926Z,1010.56
2018-02-10T01:23:49.906Z,1010.60
2018-02-10T01:24:50.707Z,1010.57
2018-02-10T01:25:49.867Z,1010.61
2018-02-10T01:26:50.663Z,1010.62
2018-02-10T01:27:49.827Z,1010.60
2018-02-10T01:28:49.807Z,1010.55
2018-02-10T01:29:49.785Z,1010.57
2018-02-10T01:30:49.780Z,1010.56
2018-02-10T01:31:50.666Z,1010.59
2018-02-10T01:32:51.663Z,1010.58
2018-02-10T01:33:50.664Z,1010.58
2018-02-10T01:34:49.684Z,1010.56
2018-02-10T01:35:49.665Z,1010.56
2018-02-10T01:36:49.676Z,1010.58
2018-02-10T01:37:49.626Z,1010.58
2018-02-10T01:38:49.603Z,1010.54
2018-02-10T01:39:50.193Z,1010.57
2018-02-10T01:40:49.578Z,1010.56
2018-02-10T01:41:49.542Z,1010.57
2018-02-10T01:42:49.542Z,1010.58
2018-02-10T01:43:49.502Z,1010.56
2018-02-10T01:44:49.482Z,1010.58
2018-02-10T01:45:49.464Z,1010.60
2018-02-10T01:46:49.442Z,1010.60
2018-02-10T01:47:49.438Z,1010.59
2018-02-10T01:48:49.417Z,1010.59
2018-02-10T01:49:49.378Z,1010.59
2018-02-10T01:50:49.364Z,1010.59
2018-02-10T01:51:49.350Z,1010.61
2018-02-10T01:52:49.323Z,1010.59
2018-02-10T01:53:49.316Z,1010.57
2018-02-10T01:54:49.283Z,1010.59
2018-02-10T01:55:49.264Z,1010.62
2018-02-10T01:56:49.240Z,1010.58
2018-02-10T01:57:49.234Z,1010.58
2018-02-10T01:58:49.203Z,1010.60
2018-02-10T01:59:49.184Z,1010.55
2018-02-10T02:00:49.161Z,1010.58
2018-02-10T02:01:49.141Z,1010.55
2018-02-10T02:02:49.118Z,1010.56
2018-02-10T02:03:49.115Z,1010.61
2018-02-10T02:04:49.705Z,1010.53
2018-02-10T02:05:49.060Z,1010.60
2018-02-10T02:06:49.047Z,1010.59
2018-02-10T02:07:49.021Z,1010.56
2018-02-10T02:08:49.001Z,1010.57
2018-02-10T02:09:48.998Z,1010.58
2018-02-10T02:10:48.963Z,1010.55
2018-02-10T02:11:48.941Z,1010.54
2018-02-10T02:12:48.929Z,1010.57
2018-02-10T02:13:48.912Z,1010.53
2018-02-10T02:14:48.896Z,1010.57
2018-02-10T02:15:48.861Z,1010.56
2018-02-10T02:16:48.854Z,1010.59
2018-02-10T02:17:48.820Z,1010.56
2018-02-10T02:18:48.801Z,1010.58
2018-02-10T02:19:48.779Z,1010.61
2018-02-10T02:20:48.760Z,1010.56
2018-02-10T02:21:48.749Z,1010.52
2018-02-10T02:22:48.723Z,1010.59
2018-02-10T02:23:48.706Z,1010.58
2018-02-10T02:24:50.168Z,1010.59
2018-02-10T02:25:48.680Z,1010.60
2018-02-10T02:26:48.640Z,1010.58
2018-02-10T02:27:48.620Z,1010.61
2018-02-10T02:28:48.600Z,1010.60
2018-02-10T02:29:48.581Z,1010.62
2018-02-10T02:30:49.205Z,1010.62
2018-02-10T02:31:49.188Z,1010.61
2018-02-10T02:32:48.520Z,1010.61
2018-02-10T02:33:48.500Z,1010.64
2018-02-10T02:34:48.480Z,1010.60
2018-02-10T02:35:48.456Z,1010.66
2018-02-10T02:36:48.456Z,1010.60
2018-02-10T02:37:48.424Z,1010.61
2018-02-10T02:38:48.418Z,1010.58
2018-02-10T02:39:48.378Z,1010.59
2018-02-10T02:40:48.359Z,1010.61
2018-02-10T02:41:48.340Z,1010.59
2018-02-10T02:42:48.324Z,1010.63
2018-02-10T02:43:48.296Z,1010.64
2018-02-10T02:44:48.298Z,1010.63
2018-02-10T02:45:48.265Z,1010.61
2018-02-10T02:46:49.210Z,1010.66
2018-02-10T02:47:48.220Z,1010.64
2018-02-10T02:48:48.218Z,1010.64
2018-02-10T02:49:48.177Z,1010.68
2018-02-10T02:50:48.160Z,1010.67
2018-02-10T02:51:48.140Z,1010.66
2018-02-10T02:52:48.165Z,1010.68
2018-02-10T02:53:48.116Z,1010.70
2018-02-10T02:54:48.081Z,1010.69
2018-02-10T02:55:48.060Z,1010.78
2018-02-10T02:56:48.041Z,1010.79
2018-02-10T02:57:48.020Z,1010.81
2018-02-10T02:58:47.999Z,1010.81
2018-02-10T02:59:47.995Z,1010.82
2018-02-10T03:00:47.962Z,1010.81
2018-02-10T03:01:47.945Z,1010.80
2018-02-10T03:02:47.923Z,1010.79
2018-02-10T03:03:47.899Z,1010.80
2018-02-10T03:04:47.899Z,1010.85
2018-02-10T03:05:49.669Z,1010.83
2018-02-10T03:06:47.842Z,1010.84
2018-02-10T03:07:47.856Z,1010.81
2018-02-10T03:08:47.807Z,1010.79
2018-02-10T03:09:47.794Z,1010.79
2018-02-10T03:10:47.772Z,1010.78
2018-02-10T03:11:47.740Z,1010.79
2018-02-10T03:12:47.735Z,1010.83
2018-02-10T03:13:47.704Z,1010.82
2018-02-10T03:14:47.681Z,1010.83
2018-02-10T03:15:47.678Z,1010.86
2018-02-10T03:16:47.637Z,1010.87
2018-02-10T03:17:47.626Z,1010.85
2018-02-10T03:18:47.615Z,1010.91
2018-02-10T03:19:47.582Z,1010.93
2018-02-10T03:20:47.560Z,1010.93
2018-02-10T03:21:47.540Z,1010.96
2018-02-10T03:22:47.516Z,1010.95
2018-02-10T03:23:47.500Z,1010.95
2018-02-10T03:24:47.500Z,1011.01
2018-02-10T03:25:47.456Z,1011.04
2018-02-10T03:26:47.440Z,1011.01
2018-02-10T03:27:48.238Z,1011.02
2018-02-10T03:28:47.401Z,1011.04
2018-02-10T03:29:47.379Z,1010.99
2018-02-10T03:30:47.371Z,1011.02
2018-02-10T03:31:47.335Z,1011.07
2018-02-10T03:32:47.326Z,1010.99
2018-02-10T03:33:47.296Z,1011.03
2018-02-10T03:34:47.277Z,1011.00
2018-02-10T03:35:47.259Z,1010.98
2018-02-10T03:36:49.176Z,1010.99
2018-02-10T03:37:47.219Z,1011.00
2018-02-10T03:38:47.195Z,1010.99
2018-02-10T03:39:47.175Z,1011.00
2018-02-10T03:40:47.156Z,1011.06
2018-02-10T03:41:47.149Z,1011.11
2018-02-10T03:42:47.116Z,1011.08
2018-02-10T03:43:47.101Z,1011.10
2018-02-10T03:44:47.074Z,1011.11
2018-02-10T03:45:47.056Z,1011.11
2018-02-10T03:46:47.047Z,1011.15
2018-02-10T03:47:47.036Z,1011.15
2018-02-10T03:48:46.997Z,1011.15
2018-02-10T03:49:48.672Z,1011.18
2018-02-10T03:50:46.953Z,1011.23
2018-02-10T03:51:46.932Z,1011.22
2018-02-10T03:52:47.757Z,1011.21
2018-02-10T03:53:46.892Z,1011.22
2018-02-10T03:54:46.892Z,1011.19
2018-02-10T03:55:46.853Z,1011.16
2018-02-10T03:56:46.838Z,1011.18
2018-02-10T03:57:46.820Z,1011.18
2018-02-10T03:58:46.806Z,1011.19
2018-02-10T03:59:46.768Z,1011.14
2018-02-10T04:00:46.756Z,1011.19
2018-02-10T04:01:46.727Z,1011.17
2018-02-10T04:02:46.707Z,1011.18
2018-02-10T04:03:46.694Z,1011.16
2018-02-10T04:04:46.690Z,1011.14
2018-02-10T04:05:46.664Z,1011.16
2018-02-10T04:06:46.629Z,1011.13
2018-02-10T04:07:46.613Z,1011.17
2018-02-10T04:08:46.583Z,1011.19
2018-02-10T04:09:46.585Z,1011.17
2018-02-10T04:10:46.578Z,1011.13
2018-02-10T04:11:46.529Z,1011.15
2018-02-10T04:12:46.508Z,1011.13
2018-02-10T04:13:46.484Z,1011.16
2018-02-10T04:14:46.466Z,1011.17
2018-02-10T04:15:46.450Z,1011.21
2018-02-10T04:16:46.440Z,1011.18
2018-02-10T04:17:46.406Z,1011.17
2018-02-10T04:18:47.208Z,1011.17
2018-02-10T04:19:46.364Z,1011.18
2018-02-10T04:20:46.352Z,1011.13
2018-02-10T04:21:46.322Z,1011.14
2018-02-10T04:22:49.174Z,1011.19
2018-02-10T04:23:46.284Z,1011.20
2018-02-10T04:24:46.264Z,1011.24
2018-02-10T04:25:46.254Z,1011.17
2018-02-10T04:26:46.219Z,1011.20
2018-02-10T04:27:48.175Z,1011.17
2018-02-10T04:28:46.197Z,1011.16
2018-02-10T04:29:46.163Z,1011.20
2018-02-10T04:30:46.158Z,1011.20
2018-02-10T04:31:46.120Z,1011.22
2018-02-10T04:32:46.099Z,1011.24
2018-02-10T04:33:46.086Z,1011.26
2018-02-10T04:34:46.062Z,1011.32
2018-02-10T04:35:46.061Z,1011.35
2018-02-10T04:36:46.019Z,1011.39
2018-02-10T04:37:45.998Z,1011.42
2018-02-10T04:38:45.982Z,1011.40
2018-02-10T04:39:45.960Z,1011.36
2018-02-10T04:40:45.941Z,1011.37
2018-02-10T04:41:45.936Z,1011.38
2018-02-10T04:42:45.898Z,1011.39
2018-02-10T04:43:45.882Z,1011.43
2018-02-10T04:44:45.860Z,1011.42
2018-02-10T04:45:45.837Z,1011.43
2018-02-10T04:46:45.837Z,1011.44
2018-02-10T04:47:45.799Z,1011.44
2018-02-10T04:48:45.779Z,1011.51
2018-02-10T04:49:45.758Z,1011.50
2018-02-10T04:50:45.737Z,1011.54
2018-02-10T04:51:45.731Z,1011.53
2018-02-10T04:52:45.697Z,1011.52
2018-02-10T04:53:45.678Z,1011.54
2018-02-10T04:54:45.657Z,1011.51
2018-02-10T04:55:45.647Z,1011.51
2018-02-10T04:56:45.779Z,1011.47
2018-02-10T04:57:45.598Z,1011.52
2018-02-10T04:58:45.596Z,1011.50
2018-02-10T04:59:45.563Z,1011.46
2018-02-10T05:00:45.542Z,1011.46
2018-02-10T05:01:45.532Z,1011.48
2018-02-10T05:02:45.498Z,1011.48
2018-02-10T05:03:45.474Z,1011.52
2018-02-10T05:04:45.480Z,1011.49
2018-02-10T05:05:46.222Z,1011.45
2018-02-10T05:06:45.422Z,1011.50
2018-02-10T05:07:45.400Z,1011.47
2018-02-10T05:08:45.397Z,1011.44
2018-02-10T05:09:45.356Z,1011.43
2018-02-10T05:10:46.260Z,1011.42
2018-02-10T05:11:45.342Z,1011.47
2018-02-10T05:12:45.296Z,1011.48
2018-02-10T05:13:45.294Z,1011.45
2018-02-10T05:14:45.260Z,1011.42
2018-02-10T05:15:45.240Z,1011.46
2018-02-10T05:16:45.219Z,1011.45
2018-02-10T05:17:45.197Z,1011.41
2018-02-10T05:18:45.195Z,1011.41
2018-02-10T05:19:46.177Z,1011.35
2018-02-10T05:20:45.143Z,1011.40
2018-02-10T05:21:45.123Z,1011.40
2018-02-10T05:22:45.101Z,1011.39
2018-02-10T05:23:45.752Z,1011.42
2018-02-10T05:24:45.058Z,1011.39
2018-02-10T05:25:45.035Z,1011.44
2018-02-10T05:26:45.043Z,1011.40
2018-02-10T05:27:44.997Z,1011.35
2018-02-10T05:28:44.977Z,1011.39
2018-02-10T05:29:44.959Z,1011.42
2018-02-10T05:30:44.956Z,1011.44
2018-02-10T05:31:44.923Z,1011.43
2018-02-10T05:32:44.894Z,1011.48
2018-02-10T05:33:44.877Z,1011.48
2018-02-10T05:34:44.861Z,1011.54
2018-02-10T05:35:44.840Z,1011.49
2018-02-10T05:36:44.837Z,1011.45
2018-02-10T05:37:44.801Z,1011.44
2018-02-10T05:38:44.779Z,1011.40
2018-02-10T05:39:44.754Z,1011.43
2018-02-10T05:40:44.738Z,1011.45
2018-02-10T05:41:44.715Z,1011.42
2018-02-10T05:42:44.712Z,1011.44
2018-02-10T05:43:45.180Z,1011.38
2018-02-10T05:44:44.658Z,1011.37
2018-02-10T05:45:44.639Z,1011.38
2018-02-10T05:46:44.635Z,1011.35
2018-02-10T05:47:44.591Z,1011.35
2018-02-10T05:48:44.582Z,1011.40
2018-02-10T05:49:44.556Z,1011.43
2018-02-10T05:50:44.542Z,1011.43
2018-02-10T05:51:44.520Z,1011.46
2018-02-10T05:52:44.522Z,1011.51
2018-02-10T05:53:45.221Z,1011.50
2018-02-10T05:54:44.457Z,1011.53
2018-02-10T05:55:44.432Z,1011.50
2018-02-10T05:56:44.416Z,1011.50
2018-02-10T05:57:44.413Z,1011.46
2018-02-10T05:58:44.378Z,1011.47
2018-02-10T05:59:44.375Z,1011.49
2018-02-10T06:00:44.342Z,1011.45
2018-02-10T06:01:44.323Z,1011.45
2018-02-10T06:02:44.310Z,1011.42
2018-02-10T06:03:44.279Z,1011.45
2018-02-10T06:04:44.258Z,1011.44
2018-02-10T06:05:44.237Z,1011.40
2018-02-10T06:06:44.219Z,1011.40
2018-02-10T06:07:44.216Z,1011.37
2018-02-10T06:08:44.199Z,1011.39
2018-02-10T06:09:44.177Z,1011.37
2018-02-10T06:10:44.149Z,1011.33
2018-02-10T06:11:44.121Z,1011.36
2018-02-10T06:12:44.106Z,1011.35
2018-02-10T06:13:44.681Z,1011.39
2018-02-10T06:14:44.079Z,1011.44
2018-02-10T06:15:44.039Z,1011.43
2018-02-10T06:16:44.023Z,1011.46
2018-02-10T06:17:44.004Z,1011.48
2018-02-10T06:18:43.985Z,1011.51
2018-02-10T06:19:44.760Z,1011.51
2018-02-10T06:20:43.996Z,1011.45
2018-02-10T06:21:43.921Z,1011.43
2018-02-10T06:22:43.899Z,1011.44
2018-02-10T06:23:43.882Z,1011.45
2018-02-10T06:24:43.879Z,1011.42
2018-02-10T06:25:43.844Z,1011.42
2018-02-10T06:26:43.825Z,1011.39
2018-02-10T06:27:43.808Z,1011.34
2018-02-10T06:28:44.728Z,1011.39
2018-02-10T06:29:43.768Z,1011.37
2018-02-10T06:30:43.758Z,1011.29
2018-02-10T06:31:43.724Z,1011.33
2018-02-10T06:32:43.723Z,1011.37
2018-02-10T06:33:43.745Z,1011.41
2018-02-10T06:34:43.667Z,1011.44
2018-02-10T06:35:43.670Z,1011.47
2018-02-10T06:36:43.627Z,1011.47
2018-02-10T06:37:43.609Z,1011.46
2018-02-10T06:38:43.609Z,1011.49
2018-02-10T06:39:43.566Z,1011.48
2018-02-10T06:40:43.550Z,1011.54
2018-02-10T06:41:43.531Z,1011.52
2018-02-10T06:42:44.211Z,1011.56
2018-02-10T06:43:43.507Z,1011.57
2018-02-10T06:44:43.487Z,1011.58
2018-02-10T06:45:44.263Z,1011.54
2018-02-10T06:46:43.433Z,1011.51
2018-02-10T06:47:43.420Z,1011.47
2018-02-10T06:48:43.401Z,1011.50
2018-02-10T06:49:43.388Z,1011.46
2018-02-10T06:50:43.350Z,1011.50
2018-02-10T06:51:43.325Z,1011.50
2018-02-10T06:52:43.311Z,1011.56
2018-02-10T06:53:43.287Z,1011.56
2018-02-10T06:54:43.285Z,1011.54
2018-02-10T06:55:43.252Z,1011.54
2018-02-10T06:56:43.231Z,1011.53
2018-02-10T06:57:43.213Z,1011.52
2018-02-10T06:58:43.198Z,1011.55
2018-02-10T06:59:44.184Z,1011.54
2018-02-10T07:00:43.164Z,1011.59
2018-02-10T07:01:43.127Z,1011.59
2018-02-10T07:02:43.110Z,1011.66
2018-02-10T07:03:43.687Z,1011.66
2018-02-10T07:04:43.079Z,1011.69
2018-02-10T07:05:43.070Z,1011.74
2018-02-10T07:06:43.691Z,1011.71
2018-02-10T07:07:43.015Z,1011.72
2018-02-10T07:08:43.001Z,1011.76
2018-02-10T07:09:43.727Z,1011.76
2018-02-10T07:10:43.704Z,1011.75
2018-02-10T07:11:42.964Z,1011.80
2018-02-10T07:12:42.909Z,1011.82
2018-02-10T07:13:44.686Z,1011.80
2018-02-10T07:14:42.912Z,1011.83
2018-02-10T07:15:42.939Z,1011.86
2018-02-10T07:16:42.867Z,1011.85
2018-02-10T07:17:42.839Z,1011.89
2018-02-10T07:18:42.806Z,1011.95
2018-02-10T07:19:42.782Z,1011.91
2018-02-10T07:20:42.762Z,1011.97
2018-02-10T07:21:42.758Z,1011.95
2018-02-10T07:22:42.807Z,1012.02
2018-02-10T07:23:42.701Z,1012.00
2018-02-10T07:24:42.679Z,1012.04
2018-02-10T07:25:42.655Z,1012.03
2018-02-10T07:26:42.676Z,1012.00
2018-02-10T07:27:42.630Z,1012.02
2018-02-10T07:28:42.627Z,1012.06
2018-02-10T07:29:43.240Z,1012.08
2018-02-10T07:30:42.571Z,1012.05
2018-02-10T07:31:42.548Z,1012.08
2018-02-10T07:32:42.519Z,1012.07
2018-02-10T07:33:42.548Z,1012.04
2018-02-10T07:34:42.494Z,1012.04
2018-02-10T07:35:42.464Z,1012.07
2018-02-10T07:36:44.187Z,1012.02
2018-02-10T07:37:42.417Z,1012.08
2018-02-10T07:38:42.394Z,1012.05
2018-02-10T07:39:42.378Z,1012.05
2018-02-10T07:40:42.356Z,1012.03
2018-02-10T07:41:42.343Z,1011.99
2018-02-10T07:42:42.332Z,1012.03
2018-02-10T07:43:42.296Z,1012.04
2018-02-10T07:44:42.276Z,1011.99
2018-02-10T07:45:42.256Z,1012.05
2018-02-10T07:46:42.237Z,1012.03
2018-02-10T07:47:42.237Z,1011.97
2018-02-10T07:48:42.206Z,1012.00
2018-02-10T07:49:42.175Z,1011.96
2018-02-10T07:50:42.171Z,1011.97
2018-02-10T07:51:42.139Z,1011.94
2018-02-10T07:52:42.136Z,1011.94
2018-02-10T07:53:42.095Z,1011.92
2018-02-10T07:54:42.080Z,1011.94
2018-02-10T07:55:42.063Z,1011.91
2018-02-10T07:56:44.768Z,1012.00
2018-02-10T07:57:42.015Z,1011.95
2018-02-10T07:58:42.011Z,1011.94
2018-02-10T07:59:41.975Z,1011.93
2018-02-10T08:00:41.958Z,1011.96
2018-02-10T08:01:41.937Z,1011.93
2018-02-10T08:02:41.914Z,1011.97
2018-02-10T08:03:41.916Z,1011.93
2018-02-10T08:04:41.894Z,1011.88
2018-02-10T08:05:41.859Z,1011.90
2018-02-10T08:06:41.841Z,1011.92
2018-02-10T08:07:41.820Z,1011.87
2018-02-10T08:08:41.812Z,1011.90
2018-02-10T08:09:41.778Z,1011.89
2018-02-10T08:10:41.753Z,1011.95
2018-02-10T08:11:41.740Z,1011.93
2018-02-10T08:12:42.206Z,1011.93
2018-02-10T08:13:42.207Z,1011.97
2018-02-10T08:14:41.694Z,1011.94
2018-02-10T08:15:41.687Z,1011.88
2018-02-10T08:16:42.207Z,1011.94
2018-02-10T08:17:41.620Z,1011.98
2018-02-10T08:18:41.601Z,1011.98
2018-02-10T08:19:41.591Z,1012.01
2018-02-10T08:20:41.574Z,1012.00
2018-02-10T08:21:41.539Z,1012.02
2018-02-10T08:22:41.517Z,1012.08
2018-02-10T08:23:41.499Z,1012.04
2018-02-10T08:24:41.480Z,1012.06
2018-02-10T08:25:41.478Z,1012.10
2018-02-10T08:26:41.446Z,1012.10
2018-02-10T08:27:41.437Z,1012.10
2018-02-10T08:28:41.414Z,1012.09
2018-02-10T08:29:43.190Z,1012.11
2018-02-10T08:30:41.362Z,1012.14
2018-02-10T08:31:41.362Z,1012.12
2018-02-10T08:32:41.321Z,1012.12
2018-02-10T08:33:41.318Z,1012.11
2018-02-10T08:34:41.284Z,1012.08
2018-02-10T08:35:41.267Z,1012.11
2018-02-10T08:36:41.771Z,1012.07
2018-02-10T08:37:41.242Z,1012.11
2018-02-10T08:38:41.214Z,1012.06
2018-02-10T08:39:41.187Z,1012.08
2018-02-10T08:40:41.167Z,1012.09
2018-02-10T08:41:41.144Z,1012.07
2018-02-10T08:42:41.137Z,1012.06
2018-02-10T08:43:41.112Z,1012.09
2018-02-10T08:44:41.089Z,1012.07
2018-02-10T08:45:41.070Z,1012.08
2018-02-10T08:46:41.039Z,1012.12
2018-02-10T08:47:41.029Z,1012.10
2018-02-10T08:48:41.021Z,1012.10
2018-02-10T08:49:43.691Z,1012.12
2018-02-10T08:50:40.962Z,1012.07
2018-02-10T08:52:01.959Z,1012.07
2018-02-10T08:52:40.929Z,1012.07
2018-02-10T08:53:40.906Z,1012.03
2018-02-10T08:54:40.884Z,1012.05
2018-02-10T08:55:40.867Z,1012.06
2018-02-10T08:56:40.863Z,1012.05
2018-02-10T08:57:42.692Z,1012.03
2018-02-10T08:58:40.804Z,1012.08
2018-02-10T08:59:40.794Z,1012.03
2018-02-10T09:00:40.769Z,1012.07
2018-02-10T09:01:40.764Z,1012.15
2018-02-10T09:02:40.735Z,1012.15
2018-02-10T09:03:40.713Z,1012.18
2018-02-10T09:04:40.690Z,1012.21
2018-02-10T09:05:41.221Z,1012.17
2018-02-10T09:06:40.683Z,1012.19
2018-02-10T09:07:40.630Z,1012.21
2018-02-10T09:08:40.613Z,1012.22
2018-02-10T09:09:40.595Z,1012.23
2018-02-10T09:10:40.588Z,1012.27
2018-02-10T09:11:40.549Z,1012.28
2018-02-10T09:12:40.533Z,1012.27
2018-02-10T09:13:40.514Z,1012.28
2018-02-10T09:14:40.505Z,1012.29
2018-02-10T09:15:40.473Z,1012.29
2018-02-10T09:16:42.194Z,1012.24
2018-02-10T09:17:40.443Z,1012.20
2018-02-10T09:18:41.271Z,1012.23
2018-02-10T09:19:40.395Z,1012.25
2018-02-10T09:20:40.377Z,1012.26
2018-02-10T09:21:40.371Z,1012.27
2018-02-10T09:22:40.344Z,1012.25
2018-02-10T09:23:40.318Z,1012.25
2018-02-10T09:24:40.295Z,1012.26
2018-02-10T09:25:40.274Z,1012.30
2018-02-10T09:26:40.271Z,1012.32
2018-02-10T09:27:40.258Z,1012.34
2018-02-10T09:28:40.225Z,1012.31
2018-02-10T09:29:40.208Z,1012.39
2018-02-10T09:30:40.174Z,1012.41
2018-02-10T09:31:40.175Z,1012.39
2018-02-10T09:32:40.142Z,1012.44
2018-02-10T09:33:40.119Z,1012.44
2018-02-10T09:34:40.108Z,1012.42
2018-02-10T09:35:40.089Z,1012.49
2018-02-10T09:36:40.078Z,1012.50
2018-02-10T09:37:40.043Z,1012.46
2018-02-10T09:38:40.023Z,1012.49
2018-02-10T09:39:40.021Z,1012.50
2018-02-10T09:40:40.695Z,1012.54
2018-02-10T09:41:39.967Z,1012.53
2018-02-10T09:42:39.958Z,1012.52
2018-02-10T09:43:39.925Z,1012.51
2018-02-10T09:44:41.695Z,1012.52
2018-02-10T09:45:39.882Z,1012.49
2018-02-10T09:46:39.891Z,1012.55
2018-02-10T09:47:39.849Z,1012.53
2018-02-10T09:48:39.831Z,1012.53
2018-02-10T09:49:39.812Z,1012.52
2018-02-10T09:50:39.788Z,1012.50
2018-02-10T09:51:39.789Z,1012.50
2018-02-10T09:52:39.750Z,1012.50
2018-02-10T09:53:39.743Z,1012.50
2018-02-10T09:55:00.734Z,1012.46
2018-02-10T09:55:39.696Z,1012.49
2018-02-10T09:56:39.673Z,1012.49
2018-02-10T09:57:39.678Z,1012.49
2018-02-10T09:58:39.651Z,1012.49
2018-02-10T09:59:39.621Z,1012.47
2018-02-10T10:00:40.197Z,1012.49
2018-02-10T10:01:39.573Z,1012.46
2018-02-10T10:02:39.581Z,1012.45
2018-02-10T10:03:39.533Z,1012.47
2018-02-10T10:04:39.517Z,1012.46
2018-02-10T10:05:39.497Z,1012.49
2018-02-10T10:06:39.472Z,1012.45
2018-02-10T10:07:39.458Z,1012.47
2018-02-10T10:08:39.463Z,1012.44
2018-02-10T10:09:39.415Z,1012.44
2018-02-10T10:10:39.406Z,1012.46
2018-02-10T10:11:39.381Z,1012.45
2018-02-10T10:12:39.361Z,1012.46
2018-02-10T10:13:39.358Z,1012.45
2018-02-10T10:14:39.334Z,1012.44
2018-02-10T10:15:39.301Z,1012.40
2018-02-10T10:16:39.281Z,1012.40
2018-02-10T10:17:40.237Z,1012.42
2018-02-10T10:18:39.240Z,1012.42
2018-02-10T10:19:39.247Z,1012.42
2018-02-10T10:20:39.206Z,1012.41
2018-02-10T10:21:39.208Z,1012.47
2018-02-10T10:22:39.185Z,1012.43
2018-02-10T10:23:39.144Z,1012.41
2018-02-10T10:24:39.123Z,1012.44
2018-02-10T10:25:39.127Z,1012.46
2018-02-10T10:26:39.118Z,1012.49
2018-02-10T10:27:39.082Z,1012.44
2018-02-10T10:28:39.044Z,1012.47
2018-02-10T10:29:39.039Z,1012.45
2018-02-10T10:30:39.019Z,1012.46
2018-02-10T10:31:38.998Z,1012.51
2018-02-10T10:32:39.006Z,1012.48
2018-02-10T10:33:38.966Z,1012.51
2018-02-10T10:34:38.926Z,1012.53
2018-02-10T10:35:38.910Z,1012.53
2018-02-10T10:36:38.914Z,1012.50
2018-02-10T10:37:38.869Z,1012.55
2018-02-10T10:38:38.853Z,1012.54
2018-02-10T10:39:38.837Z,1012.53
2018-02-10T10:40:38.814Z,1012.51
2018-02-10T10:41:38.795Z,1012.53
2018-02-10T10:42:38.796Z,1012.50
2018-02-10T10:43:38.758Z,1012.47
2018-02-10T10:44:38.735Z,1012.49
2018-02-10T10:45:38.717Z,1012.41
2018-02-10T10:46:38.710Z,1012.44
2018-02-10T10:47:38.680Z,1012.43
2018-02-10T10:48:38.682Z,1012.42
2018-02-10T10:49:38.645Z,1012.43
2018-02-10T10:50:38.625Z,1012.41
2018-02-10T10:51:38.604Z,1012.45
2018-02-10T10:52:38.595Z,1012.45
2018-02-10T10:53:38.587Z,1012.45
2018-02-10T10:54:38.544Z,1012.41
2018-02-10T10:55:38.532Z,1012.44
2018-02-10T10:56:38.500Z,1012.43
2018-02-10T10:57:40.702Z,1012.41
2018-02-10T10:58:38.484Z,1012.42
2018-02-10T10:59:38.446Z,1012.44
2018-02-10T11:00:38.431Z,1012.41
2018-02-10T11:01:38.416Z,1012.50
2018-02-10T11:02:38.385Z,1012.44
2018-02-10T11:03:38.388Z,1012.46
2018-02-10T11:04:39.219Z,1012.50
2018-02-10T11:05:40.201Z,1012.46
2018-02-10T11:06:38.313Z,1012.51
2018-02-10T11:07:38.300Z,1012.52
2018-02-10T11:08:38.273Z,1012.51
2018-02-10T11:09:38.274Z,1012.52
2018-02-10T11:10:38.235Z,1012.51
2018-02-10T11:11:38.220Z,1012.52
2018-02-10T11:12:38.193Z,1012.52
2018-02-10T11:13:39.205Z,1012.46
2018-02-10T11:14:39.226Z,1012.47
2018-02-10T11:15:38.156Z,1012.49
2018-02-10T11:16:38.123Z,1012.43
2018-02-10T11:17:38.103Z,1012.45
2018-02-10T11:18:38.085Z,1012.44
2018-02-10T11:19:38.065Z,1012.43
2018-02-10T11:20:38.058Z,1012.45
2018-02-10T11:21:38.025Z,1012.45
2018-02-10T11:22:38.009Z,1012.44
2018-02-10T11:23:37.988Z,1012.46
2018-02-10T11:24:37.972Z,1012.44
2018-02-10T11:25:37.970Z,1012.40
2018-02-10T11:26:37.931Z,1012.43
2018-02-10T11:27:37.915Z,1012.41
2018-02-10T11:28:38.743Z,1012.40
2018-02-10T11:29:38.722Z,1012.40
2018-02-10T11:30:37.855Z,1012.38
2018-02-10T11:31:37.857Z,1012.43
2018-02-10T11:32:37.840Z,1012.37
2018-02-10T11:33:38.704Z,1012.39
2018-02-10T11:34:37.775Z,1012.35
2018-02-10T11:35:37.761Z,1012.34
2018-02-10T11:36:37.757Z,1012.33
2018-02-10T11:37:37.740Z,1012.37
2018-02-10T11:38:37.710Z,1012.37
2018-02-10T11:39:37.689Z,1012.38
2018-02-10T11:40:37.681Z,1012.37
2018-02-10T11:41:38.241Z,1012.34
2018-02-10T11:42:38.238Z,1012.34
2018-02-10T11:43:37.630Z,1012.35
2018-02-10T11:44:37.599Z,1012.35
2018-02-10T11:45:37.569Z,1012.33
2018-02-10T11:46:37.554Z,1012.37
2018-02-10T11:47:37.540Z,1012.35
2018-02-10T11:48:37.541Z,1012.37
2018-02-10T11:49:37.499Z,1012.37
2018-02-10T11:50:37.481Z,1012.34
2018-02-10T11:51:37.466Z,1012.34
2018-02-10T11:52:37.445Z,1012.32
2018-02-10T11:53:37.438Z,1012.32
2018-02-10T11:54:38.207Z,1012.37
2018-02-10T11:55:37.393Z,1012.35
2018-02-10T11:56:37.395Z,1012.34
2018-02-10T11:57:37.349Z,1012.37
2018-02-10T11:58:37.330Z,1012.36
2018-02-10T11:59:37.324Z,1012.39
2018-02-10T12:00:37.289Z,1012.37
2018-02-10T12:01:37.268Z,1012.36
2018-02-10T12:02:37.311Z,1012.37
2018-02-10T12:03:37.739Z,1012.35
2018-02-10T12:04:37.236Z,1012.39
2018-02-10T12:05:38.207Z,1012.36